sensor_id;sensor_type;location;lat;lon;timestamp;pressure;altitude;pressure_sealevel;temperature;humidity
78671;BME280;68277;52.724;6.516;2023-05-07T00:00:39;101686.16;;;13.50;80.97
78671;BME280;68277;52.724;6.516;2023-05-07T00:03:05;101708.13;;;13.59;82.25
78671;BME280;68277;52.724;6.516;2023-05-07T00:05:31;101700.34;;;13.50;81.33
78671;BME280;68277;52.724;6.516;2023-05-07T00:08:00;101716.16;;;13.58;81.28
78671;BME280;68277;52.724;6.516;2023-05-07T00:10:26;101709.91;;;13.59;80.86
78671;BME280;68277;52.724;6.516;2023-05-07T00:12:51;101689.66;;;13.52;82.15
78671;BME280;68277;52.724;6.516;2023-05-07T00:15:17;101711.66;;;13.60;81.49
78671;BME280;68277;52.724;6.516;2023-05-07T00:17:42;101706.44;;;13.55;81.13
78671;BME280;68277;52.724;6.516;2023-05-07T00:20:08;101723.19;;;13.59;80.86
78671;BME280;68277;52.724;6.516;2023-05-07T00:22:34;101719.75;;;13.55;81.80
78671;BME280;68277;52.724;6.516;2023-05-07T00:24:59;101711.84;;;13.51;81.33
78671;BME280;68277;52.724;6.516;2023-05-07T00:27:25;101724.22;;;13.53;81.65
78671;BME280;68277;52.724;6.516;2023-05-07T00:29:53;101721.56;;;13.53;81.47
78671;BME280;68277;52.724;6.516;2023-05-07T00:32:19;101713.69;;;13.47;81.48
78671;BME280;68277;52.724;6.516;2023-05-07T00:34:44;101725.25;;;13.46;81.07
78671;BME280;68277;52.724;6.516;2023-05-07T00:37:10;101748.06;;;13.58;81.84
78671;BME280;68277;52.724;6.516;2023-05-07T00:39:37;101721.72;;;13.46;81.69
78671;BME280;68277;52.724;6.516;2023-05-07T00:42:02;101710.41;;;13.35;81.36
78671;BME280;68277;52.724;6.516;2023-05-07T00:44:28;101738.50;;;13.48;81.19
78671;BME280;68277;52.724;6.516;2023-05-07T00:46:55;101733.44;;;13.36;81.66
78671;BME280;68277;52.724;6.516;2023-05-07T00:49:22;101722.88;;;13.31;81.10
78671;BME280;68277;52.724;6.516;2023-05-07T00:51:49;101728.19;;;13.31;82.46
78671;BME280;68277;52.724;6.516;2023-05-07T00:54:15;101705.38;;;13.20;81.39
78671;BME280;68277;52.724;6.516;2023-05-07T00:56:41;101738.72;;;13.37;82.54
78671;BME280;68277;52.724;6.516;2023-05-07T00:59:06;101721.25;;;13.26;83.59
78671;BME280;68277;52.724;6.516;2023-05-07T01:01:32;101715.97;;;13.23;83.55
78671;BME280;68277;52.724;6.516;2023-05-07T01:03:57;101720.50;;;13.18;82.98
78671;BME280;68277;52.724;6.516;2023-05-07T01:06:24;101710.88;;;13.11;82.74
78671;BME280;68277;52.724;6.516;2023-05-07T01:08:51;101728.53;;;13.15;81.37
78671;BME280;68277;52.724;6.516;2023-05-07T01:11:18;101732.09;;;13.12;82.08
78671;BME280;68277;52.724;6.516;2023-05-07T01:13:46;101714.53;;;13.03;81.10
78671;BME280;68277;52.724;6.516;2023-05-07T01:16:12;101745.25;;;13.20;82.09
78671;BME280;68277;52.724;6.516;2023-05-07T01:18:38;101710.97;;;13.04;81.65
78671;BME280;68277;52.724;6.516;2023-05-07T01:21:06;101736.44;;;13.18;82.11
78671;BME280;68277;52.724;6.516;2023-05-07T01:23:33;101733.81;;;13.16;82.41
78671;BME280;68277;52.724;6.516;2023-05-07T01:25:59;101732.09;;;13.12;82.48
78671;BME280;68277;52.724;6.516;2023-05-07T01:28:27;101740.16;;;13.09;82.12
78671;BME280;68277;52.724;6.516;2023-05-07T01:31:00;101710.31;;;12.92;82.99
78671;BME280;68277;52.724;6.516;2023-05-07T01:33:30;101734.91;;;13.06;83.06
78671;BME280;68277;52.724;6.516;2023-05-07T01:35:57;101735.78;;;13.03;82.62
78671;BME280;68277;52.724;6.516;2023-05-07T01:38:26;101720.09;;;12.90;82.17
78671;BME280;68277;52.724;6.516;2023-05-07T01:40:52;101720.19;;;12.85;82.43
78671;BME280;68277;52.724;6.516;2023-05-07T01:43:19;101707.88;;;12.80;82.80
78671;BME280;68277;52.724;6.516;2023-05-07T01:45:45;101718.50;;;12.80;83.50
78671;BME280;68277;52.724;6.516;2023-05-07T01:48:12;101713.34;;;12.71;83.65
78671;BME280;68277;52.724;6.516;2023-05-07T01:50:40;101730.13;;;12.73;83.06
78671;BME280;68277;52.724;6.516;2023-05-07T01:53:06;101726.69;;;12.68;83.50
78671;BME280;68277;52.724;6.516;2023-05-07T01:55:32;101742.53;;;12.72;83.98
78671;BME280;68277;52.724;6.516;2023-05-07T01:57:58;101723.41;;;12.51;84.14
78671;BME280;68277;52.724;6.516;2023-05-07T02:00:25;101712.13;;;12.36;83.58
78671;BME280;68277;52.724;6.516;2023-05-07T02:02:51;101715.69;;;12.39;83.23
78671;BME280;68277;52.724;6.516;2023-05-07T02:05:38;101741.97;;;12.54;83.22
78671;BME280;68277;52.724;6.516;2023-05-07T02:08:11;101731.59;;;12.39;83.55
78671;BME280;68277;52.724;6.516;2023-05-07T02:10:36;101724.72;;;12.25;83.88
78671;BME280;68277;52.724;6.516;2023-05-07T02:13:04;101732.66;;;12.27;83.99
78671;BME280;68277;52.724;6.516;2023-05-07T02:15:30;101728.44;;;12.14;83.66
78671;BME280;68277;52.724;6.516;2023-05-07T02:18:05;101733.72;;;12.14;83.56
78671;BME280;68277;52.724;6.516;2023-05-07T02:20:32;101761.13;;;12.16;83.42
78671;BME280;68277;52.724;6.516;2023-05-07T02:22:58;101756.75;;;12.12;83.61
78671;BME280;68277;52.724;6.516;2023-05-07T02:25:26;101740.22;;;11.93;84.06
78671;BME280;68277;52.724;6.516;2023-05-07T02:27:51;101743.72;;;11.95;83.66
78671;BME280;68277;52.724;6.516;2023-05-07T02:30:25;101764.81;;;12.04;83.57
78671;BME280;68277;52.724;6.516;2023-05-07T02:32:52;101727.13;;;11.81;83.72
78671;BME280;68277;52.724;6.516;2023-05-07T02:35:18;101740.31;;;11.86;83.82
78671;BME280;68277;52.724;6.516;2023-05-07T02:37:43;101728.06;;;11.77;84.70
78671;BME280;68277;52.724;6.516;2023-05-07T02:40:09;101735.91;;;11.86;83.77
78671;BME280;68277;52.724;6.516;2023-05-07T02:42:35;101757.91;;;11.93;83.64
78671;BME280;68277;52.724;6.516;2023-05-07T02:45:01;101739.50;;;11.82;83.97
78671;BME280;68277;52.724;6.516;2023-05-07T02:47:27;101740.41;;;11.78;83.51
78671;BME280;68277;52.724;6.516;2023-05-07T02:49:54;101721.94;;;11.71;83.62
78671;BME280;68277;52.724;6.516;2023-05-07T02:52:19;101740.47;;;11.74;83.30
78671;BME280;68277;52.724;6.516;2023-05-07T02:54:45;101738.75;;;11.73;84.28
78671;BME280;68277;52.724;6.516;2023-05-07T02:57:10;101742.28;;;11.72;83.81
78671;BME280;68277;52.724;6.516;2023-05-07T02:59:36;101724.72;;;11.60;83.67
78671;BME280;68277;52.724;6.516;2023-05-07T03:02:01;101729.13;;;11.61;84.31
78671;BME280;68277;52.724;6.516;2023-05-07T03:04:27;101733.53;;;11.62;84.26
78671;BME280;68277;52.724;6.516;2023-05-07T03:06:52;101734.44;;;11.59;84.52
78671;BME280;68277;52.724;6.516;2023-05-07T03:09:18;101735.34;;;11.57;84.44
78671;BME280;68277;52.724;6.516;2023-05-07T03:11:43;101737.09;;;11.61;84.06
78671;BME280;68277;52.724;6.516;2023-05-07T03:14:09;101728.25;;;11.59;83.85
78671;BME280;68277;52.724;6.516;2023-05-07T03:16:35;101737.06;;;11.62;83.85
78671;BME280;68277;52.724;6.516;2023-05-07T03:19:00;101712.56;;;11.41;84.86
78671;BME280;68277;52.724;6.516;2023-05-07T03:21:26;101737.19;;;11.52;84.19
78671;BME280;68277;52.724;6.516;2023-05-07T03:23:52;101745.06;;;11.56;84.11
78671;BME280;68277;52.724;6.516;2023-05-07T03:26:18;101733.66;;;11.51;85.00
78671;BME280;68277;52.724;6.516;2023-05-07T03:28:44;101753.00;;;11.61;84.98
78671;BME280;68277;52.724;6.516;2023-05-07T03:31:12;101712.69;;;11.32;84.47
78671;BME280;68277;52.724;6.516;2023-05-07T03:33:58;101750.41;;;11.55;84.24
78671;BME280;68277;52.724;6.516;2023-05-07T03:36:25;101727.59;;;11.40;84.33
78671;BME280;68277;52.724;6.516;2023-05-07T03:38:55;101710.06;;;11.29;84.51
78671;BME280;68277;52.724;6.516;2023-05-07T03:41:24;101721.44;;;11.38;84.50
78671;BME280;68277;52.724;6.516;2023-05-07T03:43:55;101758.44;;;11.49;85.48
78671;BME280;68277;52.724;6.516;2023-05-07T03:46:21;101735.66;;;11.31;84.73
78671;BME280;68277;52.724;6.516;2023-05-07T03:48:47;101748.81;;;11.42;84.36
78671;BME280;68277;52.724;6.516;2023-05-07T03:51:13;101762.00;;;11.46;85.74
78671;BME280;68277;52.724;6.516;2023-05-07T03:53:39;101737.41;;;11.31;85.43
78671;BME280;68277;52.724;6.516;2023-05-07T03:56:04;101736.63;;;11.26;84.83
78671;BME280;68277;52.724;6.516;2023-05-07T03:58:34;101748.91;;;11.33;83.95
78671;BME280;68277;52.724;6.516;2023-05-07T04:01:05;101730.50;;;11.18;84.44
78671;BME280;68277;52.724;6.516;2023-05-07T04:03:36;101759.53;;;11.28;84.36
78671;BME280;68277;52.724;6.516;2023-05-07T04:06:02;101769.25;;;11.29;84.59
78671;BME280;68277;52.724;6.516;2023-05-07T04:08:29;101770.91;;;11.39;85.39
78671;BME280;68277;52.724;6.516;2023-05-07T04:10:56;101774.47;;;11.37;84.77
78671;BME280;68277;52.724;6.516;2023-05-07T04:13:23;101749.88;;;11.21;84.97
78671;BME280;68277;52.724;6.516;2023-05-07T04:15:52;101727.09;;;11.07;84.54
78671;BME280;68277;52.724;6.516;2023-05-07T04:18:19;101742.00;;;11.17;83.96
78671;BME280;68277;52.724;6.516;2023-05-07T04:20:47;101751.63;;;11.24;83.88
78671;BME280;68277;52.724;6.516;2023-05-07T04:23:14;101762.16;;;11.31;83.87
78671;BME280;68277;52.724;6.516;2023-05-07T04:25:42;101764.78;;;11.34;84.42
78671;BME280;68277;52.724;6.516;2023-05-07T04:28:19;101781.53;;;11.36;84.35
78671;BME280;68277;52.724;6.516;2023-05-07T04:30:44;101758.72;;;11.22;84.48
78671;BME280;68277;52.724;6.516;2023-05-07T04:33:17;101770.16;;;11.27;84.26
78671;BME280;68277;52.724;6.516;2023-05-07T04:35:43;101792.09;;;11.41;84.25
78671;BME280;68277;52.724;6.516;2023-05-07T04:38:09;101791.22;;;11.40;83.89
78671;BME280;68277;52.724;6.516;2023-05-07T04:40:38;101764.84;;;11.30;84.88
78671;BME280;68277;52.724;6.516;2023-05-07T04:43:05;101773.66;;;11.32;83.70
78671;BME280;68277;52.724;6.516;2023-05-07T04:45:36;101783.22;;;11.46;83.91
78671;BME280;68277;52.724;6.516;2023-05-07T04:48:01;101768.28;;;11.36;83.86
78671;BME280;68277;52.724;6.516;2023-05-07T04:50:29;101782.31;;;11.46;83.93
78671;BME280;68277;52.724;6.516;2023-05-07T04:52:58;101765.63;;;11.36;84.67
78671;BME280;68277;52.724;6.516;2023-05-07T04:55:24;101770.09;;;11.34;83.78
78671;BME280;68277;52.724;6.516;2023-05-07T04:57:50;101764.81;;;11.31;84.14
78671;BME280;68277;52.724;6.516;2023-05-07T05:00:16;101754.28;;;11.24;84.45
78671;BME280;68277;52.724;6.516;2023-05-07T05:02:46;101765.63;;;11.36;84.21
78671;BME280;68277;52.724;6.516;2023-05-07T05:05:15;101771.81;;;11.37;83.70
78671;BME280;68277;52.724;6.516;2023-05-07T05:07:41;101772.66;;;11.40;83.98
78671;BME280;68277;52.724;6.516;2023-05-07T05:10:07;101785.00;;;11.43;83.90
78671;BME280;68277;52.724;6.516;2023-05-07T05:12:36;101780.66;;;11.37;84.05
78671;BME280;68277;52.724;6.516;2023-05-07T05:15:02;101809.63;;;11.54;83.86
78671;BME280;68277;52.724;6.516;2023-05-07T05:17:28;101801.63;;;11.57;83.87
78671;BME280;68277;52.724;6.516;2023-05-07T05:19:53;101776.09;;;11.50;83.54
78671;BME280;68277;52.724;6.516;2023-05-07T05:22:19;101776.13;;;11.48;84.14
78671;BME280;68277;52.724;6.516;2023-05-07T05:24:44;101777.88;;;11.48;84.28
78671;BME280;68277;52.724;6.516;2023-05-07T05:27:10;101782.31;;;11.46;83.54
78671;BME280;68277;52.724;6.516;2023-05-07T05:29:35;101791.16;;;11.46;83.38
78671;BME280;68277;52.724;6.516;2023-05-07T05:32:01;101765.63;;;11.36;83.77
78671;BME280;68277;52.724;6.516;2023-05-07T05:34:29;101793.81;;;11.45;84.35
78671;BME280;68277;52.724;6.516;2023-05-07T05:36:55;101798.22;;;11.46;83.51
78671;BME280;68277;52.724;6.516;2023-05-07T05:39:21;101781.50;;;11.38;84.04
78671;BME280;68277;52.724;6.516;2023-05-07T05:41:49;101789.34;;;11.50;83.89
78671;BME280;68277;52.724;6.516;2023-05-07T05:44:15;101772.72;;;11.37;83.20
78671;BME280;68277;52.724;6.516;2023-05-07T05:46:42;101814.03;;;11.55;83.41
78671;BME280;68277;52.724;6.516;2023-05-07T05:49:07;101804.34;;;11.52;83.53
78671;BME280;68277;52.724;6.516;2023-05-07T05:51:34;101813.97;;;11.59;83.99
78671;BME280;68277;52.724;6.516;2023-05-07T05:53:59;101828.03;;;11.72;83.20
78671;BME280;68277;52.724;6.516;2023-05-07T05:56:25;101795.44;;;11.58;83.42
78671;BME280;68277;52.724;6.516;2023-05-07T05:58:51;101806.88;;;11.68;82.99
78671;BME280;68277;52.724;6.516;2023-05-07T06:01:18;101805.13;;;11.62;83.03
78671;BME280;68277;52.724;6.516;2023-05-07T06:03:47;101823.66;;;11.63;83.44
78671;BME280;68277;52.724;6.516;2023-05-07T06:06:14;101800.75;;;11.56;83.25
78671;BME280;68277;52.724;6.516;2023-05-07T06:08:40;101835.09;;;11.72;83.44
78671;BME280;68277;52.724;6.516;2023-05-07T06:11:06;101837.75;;;11.72;83.78
78671;BME280;68277;52.724;6.516;2023-05-07T06:13:35;101815.78;;;11.57;83.98
78671;BME280;68277;52.724;6.516;2023-05-07T06:16:00;101841.25;;;11.75;83.21
78671;BME280;68277;52.724;6.516;2023-05-07T06:18:26;101821.94;;;11.59;83.04
78671;BME280;68277;52.724;6.516;2023-05-07T06:20:52;101840.31;;;11.79;82.78
78671;BME280;68277;52.724;6.516;2023-05-07T06:23:23;101822.72;;;11.66;83.07
78671;BME280;68277;52.724;6.516;2023-05-07T06:25:49;101832.47;;;11.68;84.17
78671;BME280;68277;52.724;6.516;2023-05-07T06:28:21;101828.03;;;11.69;83.46
78671;BME280;68277;52.724;6.516;2023-05-07T06:30:47;101851.75;;;11.84;82.74
78671;BME280;68277;52.724;6.516;2023-05-07T06:33:16;101849.94;;;11.85;82.77
78671;BME280;68277;52.724;6.516;2023-05-07T06:35:42;101827.16;;;11.70;83.47
78671;BME280;68277;52.724;6.516;2023-05-07T06:38:07;101831.59;;;11.70;83.36
78671;BME280;68277;52.724;6.516;2023-05-07T06:40:32;101834.19;;;11.74;82.91
78671;BME280;68277;52.724;6.516;2023-05-07T06:42:59;101829.69;;;11.78;83.26
78671;BME280;68277;52.724;6.516;2023-05-07T06:45:41;101853.44;;;11.91;83.02
78671;BME280;68277;52.724;6.516;2023-05-07T06:48:08;101842.88;;;11.85;82.76
78671;BME280;68277;52.724;6.516;2023-05-07T06:50:43;101848.91;;;11.99;82.81
78671;BME280;68277;52.724;6.516;2023-05-07T06:53:10;101833.97;;;11.92;82.70
78671;BME280;68277;52.724;6.516;2023-05-07T06:55:35;101818.91;;;11.94;82.78
78671;BME280;68277;52.724;6.516;2023-05-07T06:58:10;101856.53;;;12.25;82.80
78671;BME280;68277;52.724;6.516;2023-05-07T07:00:36;101845.03;;;12.26;82.09
78671;BME280;68277;52.724;6.516;2023-05-07T07:03:02;101861.41;;;12.57;82.20
78671;BME280;68277;52.724;6.516;2023-05-07T07:05:28;101842.78;;;12.60;81.38
78671;BME280;68277;52.724;6.516;2023-05-07T07:07:55;101850.47;;;12.78;80.98
78671;BME280;68277;52.724;6.516;2023-05-07T07:10:24;101865.81;;;13.17;80.65
78671;BME280;68277;52.724;6.516;2023-05-07T07:12:50;101845.19;;;13.31;78.96
78671;BME280;68277;52.724;6.516;2023-05-07T07:15:19;101848.38;;;13.50;80.08
78671;BME280;68277;52.724;6.516;2023-05-07T07:17:47;101843.16;;;13.47;79.60
78671;BME280;68277;52.724;6.516;2023-05-07T07:20:14;101852.84;;;13.48;79.26
78671;BME280;68277;52.724;6.516;2023-05-07T07:22:43;101842.34;;;13.40;78.79
78671;BME280;68277;52.724;6.516;2023-05-07T07:25:09;101849.44;;;13.41;79.02
78671;BME280;68277;52.724;6.516;2023-05-07T07:27:35;101846.81;;;13.40;78.84
78671;BME280;68277;52.724;6.516;2023-05-07T07:30:01;101858.00;;;13.57;79.04
78671;BME280;68277;52.724;6.516;2023-05-07T07:32:29;101844.91;;;13.46;78.66
78671;BME280;68277;52.724;6.516;2023-05-07T07:34:55;101854.53;;;13.53;78.88
78671;BME280;68277;52.724;6.516;2023-05-07T07:37:20;101878.19;;;13.68;78.69
78671;BME280;68277;52.724;6.516;2023-05-07T07:39:47;101840.41;;;13.50;78.22
78671;BME280;68277;52.724;6.516;2023-05-07T07:42:12;101863.94;;;13.73;78.01
78671;BME280;68277;52.724;6.516;2023-05-07T07:44:38;101853.25;;;13.74;78.11
78671;BME280;68277;52.724;6.516;2023-05-07T07:47:07;101850.31;;;13.89;77.55
78671;BME280;68277;52.724;6.516;2023-05-07T07:49:33;101843.06;;;13.96;77.70
78671;BME280;68277;52.724;6.516;2023-05-07T07:52:03;101837.59;;;14.03;77.16
78671;BME280;68277;52.724;6.516;2023-05-07T07:54:30;101840.06;;;14.11;77.08
78671;BME280;68277;52.724;6.516;2023-05-07T07:56:56;101831.50;;;13.97;76.51
78671;BME280;68277;52.724;6.516;2023-05-07T07:59:22;101834.69;;;14.15;76.96
78671;BME280;68277;52.724;6.516;2023-05-07T08:01:49;101868.63;;;14.47;76.68
78671;BME280;68277;52.724;6.516;2023-05-07T08:04:16;101840.41;;;14.37;76.15
78671;BME280;68277;52.724;6.516;2023-05-07T08:06:42;101866.84;;;14.46;76.18
78671;BME280;68277;52.724;6.516;2023-05-07T08:09:09;101859.78;;;14.45;75.95
78671;BME280;68277;52.724;6.516;2023-05-07T08:11:35;101850.25;;;14.35;75.81
78671;BME280;68277;52.724;6.516;2023-05-07T08:14:01;101835.31;;;14.26;75.56
78671;BME280;68277;52.724;6.516;2023-05-07T08:16:27;101846.63;;;14.37;75.85
78671;BME280;68277;52.724;6.516;2023-05-07T08:18:53;101844.69;;;14.44;75.38
78671;BME280;68277;52.724;6.516;2023-05-07T08:21:19;101873.47;;;14.68;75.12
78671;BME280;68277;52.724;6.516;2023-05-07T08:23:45;101847.53;;;14.76;75.36
78671;BME280;68277;52.724;6.516;2023-05-07T08:26:11;101846.44;;;14.85;74.70
78671;BME280;68277;52.724;6.516;2023-05-07T08:28:36;101867.34;;;15.01;74.59
78671;BME280;68277;52.724;6.516;2023-05-07T08:31:02;101883.69;;;15.23;74.24
78671;BME280;68277;52.724;6.516;2023-05-07T08:33:31;101833.03;;;15.22;73.71
78671;BME280;68277;52.724;6.516;2023-05-07T08:35:57;101839.75;;;15.38;73.61
78671;BME280;68277;52.724;6.516;2023-05-07T08:38:24;101850.22;;;15.79;72.83
78671;BME280;68277;52.724;6.516;2023-05-07T08:40:49;101859.75;;;15.88;71.85
78671;BME280;68277;52.724;6.516;2023-05-07T08:43:19;101849.81;;;15.93;71.89
78671;BME280;68277;52.724;6.516;2023-05-07T08:45:45;101876.25;;;16.02;71.37
78671;BME280;68277;52.724;6.516;2023-05-07T08:48:16;101871.72;;;16.05;72.51
78671;BME280;68277;52.724;6.516;2023-05-07T08:50:45;101871.97;;;16.58;70.89
78671;BME280;68277;52.724;6.516;2023-05-07T08:53:11;101852.88;;;16.70;69.90
78671;BME280;68277;52.724;6.516;2023-05-07T08:55:39;101835.38;;;17.14;68.45
78671;BME280;68277;52.724;6.516;2023-05-07T08:58:05;101856.13;;;18.07;66.21
78671;BME280;68277;52.724;6.516;2023-05-07T09:00:32;101827.44;;;18.11;65.87
78671;BME280;68277;52.724;6.516;2023-05-07T09:03:00;101873.38;;;18.23;65.97
78671;BME280;68277;52.724;6.516;2023-05-07T09:05:26;101857.16;;;17.80;67.86
78671;BME280;68277;52.724;6.516;2023-05-07T09:07:51;101845.13;;;17.67;68.36
78671;BME280;68277;52.724;6.516;2023-05-07T09:10:19;101827.50;;;17.61;68.41
78671;BME280;68277;52.724;6.516;2023-05-07T09:12:46;101858.88;;;17.83;68.60
78671;BME280;68277;52.724;6.516;2023-05-07T09:15:12;101870.41;;;18.08;67.13
78671;BME280;68277;52.724;6.516;2023-05-07T09:17:38;101866.84;;;18.07;66.97
78671;BME280;68277;52.724;6.516;2023-05-07T09:20:05;101847.22;;;18.07;67.41
78671;BME280;68277;52.724;6.516;2023-05-07T09:22:32;101873.03;;;18.32;66.27
78671;BME280;68277;52.724;6.516;2023-05-07T09:25:03;101860.81;;;18.72;65.23
78671;BME280;68277;52.724;6.516;2023-05-07T09:27:30;101866.41;;;18.66;64.71
78671;BME280;68277;52.724;6.516;2023-05-07T09:29:58;101841.25;;;18.47;62.71
78671;BME280;68277;52.724;6.516;2023-05-07T09:32:24;101828.97;;;18.39;65.10
78671;BME280;68277;52.724;6.516;2023-05-07T09:34:50;101854.94;;;18.39;65.04
78671;BME280;68277;52.724;6.516;2023-05-07T09:37:19;101853.19;;;18.15;66.65
78671;BME280;68277;52.724;6.516;2023-05-07T09:39:48;101875.09;;;18.49;66.84
78671;BME280;68277;52.724;6.516;2023-05-07T09:42:25;101863.09;;;18.36;63.00
78671;BME280;68277;52.724;6.516;2023-05-07T09:44:54;101852.25;;;18.16;64.32
78671;BME280;68277;52.724;6.516;2023-05-07T09:47:24;101862.59;;;18.02;66.43
78671;BME280;68277;52.724;6.516;2023-05-07T09:49:55;101849.69;;;17.90;66.17
78671;BME280;68277;52.724;6.516;2023-05-07T09:52:23;101849.38;;;17.97;66.02
78671;BME280;68277;52.724;6.516;2023-05-07T09:54:54;101851.38;;;18.38;66.08
78671;BME280;68277;52.724;6.516;2023-05-07T09:57:24;101820.66;;;18.49;63.77
78671;BME280;68277;52.724;6.516;2023-05-07T09:59:56;101828.06;;;18.64;65.91
78671;BME280;68277;52.724;6.516;2023-05-07T10:02:28;101832.13;;;19.17;62.80
78671;BME280;68277;52.724;6.516;2023-05-07T10:04:56;101845.94;;;19.50;64.74
78671;BME280;68277;52.724;6.516;2023-05-07T10:07:27;101827.41;;;19.44;64.20
78671;BME280;68277;52.724;6.516;2023-05-07T10:09:57;101875.19;;;19.56;63.25
78671;BME280;68277;52.724;6.516;2023-05-07T10:12:35;101871.31;;;19.63;63.70
78671;BME280;68277;52.724;6.516;2023-05-07T10:15:06;101841.34;;;19.72;63.07
78671;BME280;68277;52.724;6.516;2023-05-07T10:17:35;101867.47;;;20.09;62.11
78671;BME280;68277;52.724;6.516;2023-05-07T10:20:01;101869.94;;;20.13;61.58
78671;BME280;68277;52.724;6.516;2023-05-07T10:22:27;101844.63;;;20.37;61.43
78671;BME280;68277;52.724;6.516;2023-05-07T10:24:56;101839.69;;;20.28;60.71
78671;BME280;68277;52.724;6.516;2023-05-07T10:27:25;101834.53;;;20.61;61.39
78671;BME280;68277;52.724;6.516;2023-05-07T10:32:39;101856.47;;;20.52;58.92
78671;BME280;68277;52.724;6.516;2023-05-07T10:35:23;101872.81;;;20.85;58.71
78671;BME280;68277;52.724;6.516;2023-05-07T10:37:50;101866.84;;;20.97;60.57
78671;BME280;68277;52.724;6.516;2023-05-07T10:40:17;101880.94;;;21.02;59.15
78671;BME280;68277;52.724;6.516;2023-05-07T10:45:27;101850.53;;;20.45;59.34
78671;BME280;68277;52.724;6.516;2023-05-07T10:50:41;101846.47;;;20.37;60.17
78671;BME280;68277;52.724;6.516;2023-05-07T10:55:51;101854.25;;;20.97;59.46
78671;BME280;68277;52.724;6.516;2023-05-07T11:00:49;101848.72;;;21.19;58.09
78671;BME280;68277;52.724;6.516;2023-05-07T11:03:28;101864.56;;;21.25;58.43
78671;BME280;68277;52.724;6.516;2023-05-07T11:06:15;101847.59;;;21.23;57.34
78671;BME280;68277;52.724;6.516;2023-05-07T11:11:18;101874.41;;;21.60;54.93
78671;BME280;68277;52.724;6.516;2023-05-07T11:13:51;101856.47;;;21.25;57.46
78671;BME280;68277;52.724;6.516;2023-05-07T11:16:30;101855.97;;;20.81;57.82
78671;BME280;68277;52.724;6.516;2023-05-07T11:19:08;101876.50;;;20.65;56.92
78671;BME280;68277;52.724;6.516;2023-05-07T11:21:41;101867.59;;;20.82;57.69
78671;BME280;68277;52.724;6.516;2023-05-07T11:24:23;101854.78;;;20.87;56.85
78671;BME280;68277;52.724;6.516;2023-05-07T11:26:56;101836.91;;;20.86;56.76
78671;BME280;68277;52.724;6.516;2023-05-07T11:29:23;101858.13;;;20.92;56.88
78671;BME280;68277;52.724;6.516;2023-05-07T11:31:55;101863.16;;;20.81;56.48
78671;BME280;68277;52.724;6.516;2023-05-07T11:34:25;101879.09;;;20.85;56.34
78671;BME280;68277;52.724;6.516;2023-05-07T11:36:53;101883.31;;;20.72;57.13
78671;BME280;68277;52.724;6.516;2023-05-07T11:39:26;101828.66;;;20.53;57.01
78671;BME280;68277;52.724;6.516;2023-05-07T11:41:51;101866.78;;;20.80;56.37
78671;BME280;68277;52.724;6.516;2023-05-07T11:44:18;101868.41;;;20.65;56.79
78671;BME280;68277;52.724;6.516;2023-05-07T11:46:44;101886.00;;;20.54;57.23
78671;BME280;68277;52.724;6.516;2023-05-07T11:49:10;101882.47;;;20.33;56.45
78671;BME280;68277;52.724;6.516;2023-05-07T11:51:36;101854.09;;;20.27;56.81
78671;BME280;68277;52.724;6.516;2023-05-07T11:54:04;101884.59;;;20.45;57.34
78671;BME280;68277;52.724;6.516;2023-05-07T11:56:34;101890.88;;;20.45;57.22
78671;BME280;68277;52.724;6.516;2023-05-07T11:59:00;101888.47;;;20.39;57.10
78671;BME280;68277;52.724;6.516;2023-05-07T12:01:29;101874.16;;;20.58;56.60
78671;BME280;68277;52.724;6.516;2023-05-07T12:03:55;101884.97;;;20.93;56.72
78671;BME280;68277;52.724;6.516;2023-05-07T12:06:20;101873.00;;;21.18;55.91
78671;BME280;68277;52.724;6.516;2023-05-07T12:08:46;101885.22;;;21.07;56.07
78671;BME280;68277;52.724;6.516;2023-05-07T12:11:22;101866.06;;;20.95;56.97
78671;BME280;68277;52.724;6.516;2023-05-07T12:13:47;101873.84;;;20.82;56.46
78671;BME280;68277;52.724;6.516;2023-05-07T12:16:13;101854.16;;;20.44;57.72
78671;BME280;68277;52.724;6.516;2023-05-07T12:18:39;101884.56;;;20.47;57.88
78671;BME280;68277;52.724;6.516;2023-05-07T12:21:08;101880.88;;;20.29;58.35
78671;BME280;68277;52.724;6.516;2023-05-07T12:23:36;101879.22;;;20.06;58.07
78671;BME280;68277;52.724;6.516;2023-05-07T12:26:02;101884.34;;;19.92;58.40
78671;BME280;68277;52.724;6.516;2023-05-07T12:28:29;101868.63;;;19.63;58.69
78671;BME280;68277;52.724;6.516;2023-05-07T12:30:56;101870.09;;;19.70;58.84
78671;BME280;68277;52.724;6.516;2023-05-07T12:33:26;101864.84;;;19.67;59.26
78671;BME280;68277;52.724;6.516;2023-05-07T12:35:53;101866.03;;;19.61;58.93
78671;BME280;68277;52.724;6.516;2023-05-07T12:38:19;101873.84;;;19.46;59.70
78671;BME280;68277;52.724;6.516;2023-05-07T12:40:46;101895.50;;;19.41;60.11
78671;BME280;68277;52.724;6.516;2023-05-07T12:43:29;101867.63;;;19.24;60.00
78671;BME280;68277;52.724;6.516;2023-05-07T12:45:55;101897.16;;;19.45;60.12
78671;BME280;68277;52.724;6.516;2023-05-07T12:48:23;101893.81;;;19.81;59.37
78671;BME280;68277;52.724;6.516;2023-05-07T12:50:56;101866.50;;;19.71;59.11
78671;BME280;68277;52.724;6.516;2023-05-07T12:53:23;101891.25;;;19.98;58.77
78671;BME280;68277;52.724;6.516;2023-05-07T12:55:51;101874.19;;;19.99;58.46
78671;BME280;68277;52.724;6.516;2023-05-07T12:58:25;101871.22;;;20.05;58.37
78671;BME280;68277;52.724;6.516;2023-05-07T13:00:52;101882.59;;;20.11;58.99
78671;BME280;68277;52.724;6.516;2023-05-07T13:03:36;101893.84;;;20.19;58.33
78671;BME280;68277;52.724;6.516;2023-05-07T13:06:04;101882.03;;;20.23;59.58
78671;BME280;68277;52.724;6.516;2023-05-07T13:08:34;101875.59;;;20.27;58.65